createdAt,value
2022-08-17T00:00:42.715Z,12.98
2022-08-17T00:03:10.515Z,12.15
2022-08-17T00:05:36.812Z,12.82
2022-08-17T00:08:03.075Z,11.20
2022-08-17T00:10:29.377Z,12.68
2022-08-17T00:12:58.647Z,13.45
2022-08-17T00:15:24.866Z,11.95
2022-08-17T00:17:51.130Z,14.10
2022-08-17T00:20:17.538Z,13.93
2022-08-17T00:22:46.274Z,12.47
2022-08-17T00:25:12.503Z,14.30
2022-08-17T00:27:38.772Z,12.38
2022-08-17T00:30:04.987Z,10.32
2022-08-17T00:33:15.778Z,9.95
2022-08-17T00:35:17.547Z,10.85
2022-08-17T00:37:43.775Z,10.82
2022-08-17T00:40:10.087Z,9.68
2022-08-17T00:42:36.438Z,9.77
2022-08-17T00:45:02.662Z,10.57
2022-08-17T00:47:28.907Z,9.82
2022-08-17T00:49:55.257Z,10.65
2022-08-17T00:52:21.545Z,10.38
2022-08-17T00:54:47.812Z,11.63
2022-08-17T00:57:14.102Z,11.60
2022-08-17T00:59:40.346Z,11.27
2022-08-17T01:02:06.602Z,11.10
2022-08-17T01:04:32.835Z,11.38
2022-08-17T01:06:59.063Z,11.13
2022-08-17T01:09:25.308Z,10.90
2022-08-17T01:11:51.578Z,11.25
2022-08-17T01:14:17.916Z,11.93
2022-08-17T01:16:44.180Z,11.50
2022-08-17T01:19:10.497Z,11.90
2022-08-17T01:21:36.751Z,11.77
2022-08-17T01:24:02.955Z,12.75
2022-08-17T01:26:29.255Z,11.77
2022-08-17T01:28:56.003Z,12.18
2022-08-17T01:31:22.305Z,12.15
2022-08-17T01:33:48.574Z,12.68
2022-08-17T01:36:14.881Z,13.15
2022-08-17T01:38:41.159Z,10.45
2022-08-17T01:41:07.389Z,13.65
2022-08-17T01:43:33.640Z,12.27
2022-08-17T01:46:03.138Z,11.02
2022-08-17T01:48:30.221Z,12.07
2022-08-17T01:50:56.452Z,12.70
2022-08-17T01:53:22.713Z,12.40
2022-08-17T01:55:48.953Z,10.70
2022-08-17T01:58:15.203Z,10.75
2022-08-17T02:00:59.714Z,11.95
2022-08-17T02:03:27.653Z,13.52
2022-08-17T02:05:53.908Z,10.73
2022-08-17T02:08:20.420Z,11.98
2022-08-17T02:10:58.798Z,14.20
2022-08-17T02:13:27.281Z,13.40
2022-08-17T02:15:53.534Z,13.18
2022-08-17T02:18:19.784Z,13.60
2022-08-17T02:20:46.123Z,12.38
2022-08-17T02:23:12.374Z,13.80
2022-08-17T02:25:38.594Z,13.50
2022-08-17T02:28:04.859Z,14.13
2022-08-17T02:31:00.938Z,14.07
2022-08-17T02:33:17.399Z,13.63
2022-08-17T02:35:46.558Z,14.50
2022-08-17T02:38:12.802Z,14.55
2022-08-17T02:40:39.058Z,13.65
2022-08-17T02:43:05.325Z,12.63
2022-08-17T02:45:31.647Z,13.95
2022-08-17T02:47:57.917Z,12.02
2022-08-17T02:50:24.131Z,13.15
2022-08-17T02:53:01.828Z,13.32
2022-08-17T02:55:28.867Z,12.60
2022-08-17T02:57:55.113Z,12.55
2022-08-17T03:00:21.347Z,12.68
2022-08-17T03:02:47.591Z,10.98
2022-08-17T03:05:13.818Z,11.95
2022-08-17T03:07:40.055Z,14.40
2022-08-17T03:10:06.297Z,12.13
2022-08-17T03:12:32.557Z,11.55
2022-08-17T03:14:58.780Z,12.85
2022-08-17T03:17:25.134Z,11.27
2022-08-17T03:19:51.441Z,11.98
2022-08-17T03:22:36.187Z,11.85
2022-08-17T03:25:03.996Z,12.57
2022-08-17T03:27:36.775Z,11.50
2022-08-17T03:30:05.734Z,14.07
2022-08-17T03:32:31.968Z,12.77
2022-08-17T03:34:58.208Z,13.50
2022-08-17T03:37:24.511Z,13.45
2022-08-17T03:39:50.801Z,14.25
2022-08-17T03:42:32.331Z,15.10
2022-08-17T03:44:59.101Z,14.75
2022-08-17T03:47:25.505Z,15.73
2022-08-17T03:49:51.726Z,14.38
2022-08-17T03:52:17.987Z,13.43
2022-08-17T03:54:44.218Z,14.30
2022-08-17T03:57:10.486Z,13.30
2022-08-17T03:59:36.725Z,13.00
2022-08-17T04:02:02.967Z,13.32
2022-08-17T04:04:29.195Z,11.82
2022-08-17T04:06:55.429Z,13.90
2022-08-17T04:09:21.640Z,13.73
2022-08-17T04:11:47.955Z,14.02
2022-08-17T04:14:14.314Z,12.63
2022-08-17T04:16:40.566Z,16.50
2022-08-17T04:19:06.787Z,12.68
2022-08-17T04:21:33.232Z,12.25
2022-08-17T04:23:59.461Z,11.98
2022-08-17T04:26:52.526Z,12.65
2022-08-17T04:29:12.060Z,13.52
2022-08-17T04:31:38.312Z,13.95
2022-08-17T04:34:04.549Z,13.55
2022-08-17T04:36:30.925Z,12.02
2022-08-17T04:38:58.329Z,13.60
2022-08-17T04:41:24.648Z,13.00
2022-08-17T04:43:50.895Z,12.77
2022-08-17T04:46:17.183Z,13.10
2022-08-17T04:48:43.552Z,14.50
2022-08-17T04:51:10.283Z,12.93
2022-08-17T04:53:36.715Z,13.63
2022-08-17T04:56:03.031Z,13.52
2022-08-17T04:58:29.274Z,14.10
2022-08-17T05:00:55.591Z,13.27
2022-08-17T05:03:21.835Z,14.48
2022-08-17T05:05:48.100Z,14.77
2022-08-17T05:08:14.714Z,17.15
2022-08-17T05:10:45.534Z,16.02
2022-08-17T05:13:12.071Z,14.27
2022-08-17T05:15:38.326Z,15.27
2022-08-17T05:18:11.246Z,14.45
2022-08-17T05:20:37.700Z,15.07
2022-08-17T05:23:03.951Z,16.52
2022-08-17T05:25:30.517Z,11.95
2022-08-17T05:28:00.683Z,12.48
2022-08-17T05:30:28.469Z,12.15
2022-08-17T05:32:55.249Z,11.40
2022-08-17T05:35:21.692Z,12.07
2022-08-17T05:37:48.119Z,12.82
2022-08-17T05:40:14.436Z,14.10
2022-08-17T05:42:41.036Z,12.63
2022-08-17T05:45:07.346Z,14.30
2022-08-17T05:47:33.814Z,11.88
2022-08-17T05:50:00.332Z,13.13
2022-08-17T05:52:28.622Z,14.13
2022-08-17T05:54:55.052Z,12.73
2022-08-17T05:57:22.218Z,13.20
2022-08-17T05:59:49.265Z,11.48
2022-08-17T06:02:15.594Z,11.07
2022-08-17T06:04:41.931Z,14.13
2022-08-17T06:07:08.292Z,13.73
2022-08-17T06:09:34.574Z,13.10
2022-08-17T06:12:00.936Z,11.93
2022-08-17T06:14:28.763Z,12.10
2022-08-17T06:16:55.114Z,11.55
2022-08-17T06:19:21.417Z,11.43
2022-08-17T06:21:47.881Z,11.70
2022-08-17T06:24:14.221Z,13.02
2022-08-17T06:26:43.282Z,10.88
2022-08-17T06:29:09.794Z,9.93
2022-08-17T06:31:45.273Z,11.25
2022-08-17T06:34:11.480Z,9.75
2022-08-17T06:36:37.731Z,9.57
2022-08-17T06:39:03.979Z,10.05
2022-08-17T06:41:30.248Z,9.70
2022-08-17T06:43:56.531Z,10.88
2022-08-17T06:46:22.818Z,10.50
2022-08-17T06:48:49.044Z,10.93
2022-08-17T06:51:15.368Z,10.35
2022-08-17T06:53:41.671Z,8.60
2022-08-17T06:56:07.951Z,9.52
2022-08-17T06:58:34.172Z,10.40
2022-08-17T07:01:00.450Z,9.80
2022-08-17T07:03:26.713Z,9.23
2022-08-17T07:05:52.966Z,8.38
2022-08-17T07:08:20.654Z,9.88
2022-08-17T07:10:46.908Z,9.57
2022-08-17T07:13:13.131Z,8.35
2022-08-17T07:15:39.651Z,8.35
2022-08-17T07:18:05.872Z,7.10
2022-08-17T07:20:32.384Z,7.78
2022-08-17T07:23:00.433Z,7.47
2022-08-17T07:25:26.968Z,7.65
2022-08-17T07:27:53.196Z,8.05
2022-08-17T07:30:19.648Z,7.78
2022-08-17T07:32:46.069Z,8.85
2022-08-17T07:35:12.524Z,7.53
2022-08-17T07:37:41.749Z,6.63
2022-08-17T07:40:15.442Z,7.43
2022-08-17T07:42:46.720Z,6.78
2022-08-17T07:45:13.321Z,7.78
2022-08-17T07:47:39.567Z,7.30
2022-08-17T07:50:05.854Z,6.68
2022-08-17T07:52:51.185Z,7.38
2022-08-17T07:55:18.286Z,6.85
2022-08-17T07:57:44.615Z,7.95
2022-08-17T08:00:16.411Z,7.45
2022-08-17T08:02:42.849Z,5.72
2022-08-17T08:05:09.142Z,7.38
2022-08-17T08:07:36.413Z,5.80
2022-08-17T08:10:02.731Z,6.38
2022-08-17T08:12:33.673Z,6.40
2022-08-17T08:15:00.201Z,5.65
2022-08-17T08:17:26.463Z,8.00
2022-08-17T08:19:52.751Z,5.45
2022-08-17T08:22:19.101Z,5.28
2022-08-17T08:24:45.439Z,5.80
2022-08-17T08:27:11.657Z,5.65
2022-08-17T08:29:37.921Z,5.30
2022-08-17T08:32:04.158Z,4.47
2022-08-17T08:34:58.708Z,4.10
2022-08-17T08:37:24.970Z,4.10
2022-08-17T08:39:53.995Z,4.38
2022-08-17T08:42:20.474Z,3.70
2022-08-17T08:45:01.278Z,4.55
2022-08-17T08:47:31.489Z,4.18
2022-08-17T08:50:04.402Z,4.38
2022-08-17T08:52:31.201Z,4.32
2022-08-17T08:54:57.519Z,5.45
2022-08-17T08:57:28.017Z,5.00
2022-08-17T08:59:58.399Z,4.10
2022-08-17T09:02:24.804Z,4.55
2022-08-17T09:05:13.440Z,4.13
2022-08-17T09:07:37.427Z,4.90
2022-08-17T09:10:03.732Z,4.13
2022-08-17T09:12:30.025Z,4.35
2022-08-17T09:14:56.305Z,4.68
2022-08-17T09:17:22.543Z,4.22
2022-08-17T09:19:48.792Z,4.70
2022-08-17T09:22:15.021Z,4.35
2022-08-17T09:24:41.274Z,4.13
2022-08-17T09:27:07.557Z,4.13
2022-08-17T09:29:33.804Z,4.32
2022-08-17T09:32:00.129Z,3.90
2022-08-17T09:34:29.601Z,4.63
2022-08-17T09:36:59.555Z,5.15
2022-08-17T09:39:26.256Z,5.00
2022-08-17T09:41:52.732Z,4.40
2022-08-17T09:44:23.079Z,3.92
2022-08-17T09:46:50.075Z,4.03
2022-08-17T09:49:16.382Z,3.85
2022-08-17T09:51:42.651Z,3.92
2022-08-17T09:54:37.097Z,4.07
2022-08-17T09:57:18.166Z,4.00
2022-08-17T09:59:41.876Z,3.40
2022-08-17T10:02:08.219Z,4.72
2022-08-17T10:04:39.492Z,3.58
2022-08-17T10:07:05.762Z,3.45
2022-08-17T10:09:32.021Z,3.88
2022-08-17T10:11:58.861Z,4.28
2022-08-17T10:14:37.640Z,4.15
2022-08-17T10:17:10.085Z,4.07
2022-08-17T10:19:36.394Z,3.90
2022-08-17T10:22:32.791Z,3.80
2022-08-17T10:25:01.950Z,4.45
2022-08-17T10:27:35.144Z,2.92
2022-08-17T10:30:01.488Z,3.35
2022-08-17T10:32:28.433Z,2.95
2022-08-17T10:34:54.851Z,2.88
2022-08-17T10:37:21.193Z,3.15
2022-08-17T10:39:52.139Z,3.22
2022-08-17T10:42:30.406Z,4.30
2022-08-17T10:44:59.228Z,3.40
2022-08-17T10:47:25.674Z,2.30
2022-08-17T10:49:51.960Z,2.97
2022-08-17T10:52:18.254Z,3.38
2022-08-17T10:54:44.475Z,2.35
2022-08-17T10:57:10.959Z,2.63
2022-08-17T10:59:37.185Z,4.20
2022-08-17T11:02:03.435Z,2.90
2022-08-17T11:04:29.839Z,3.72
2022-08-17T11:06:56.188Z,2.30
2022-08-17T11:09:22.443Z,2.72
2022-08-17T11:11:48.706Z,3.70
2022-08-17T11:14:14.969Z,4.22
2022-08-17T11:16:41.200Z,3.88
2022-08-17T11:19:07.443Z,3.80
2022-08-17T11:21:33.669Z,3.58
2022-08-17T11:23:59.902Z,2.78
2022-08-17T11:26:26.207Z,2.92
2022-08-17T11:28:53.040Z,6.18
2022-08-17T11:31:19.448Z,2.42
2022-08-17T11:34:04.317Z,3.25
2022-08-17T11:36:30.549Z,2.90
2022-08-17T11:38:56.810Z,3.03
2022-08-17T11:41:23.604Z,3.10
2022-08-17T11:43:49.890Z,3.05
2022-08-17T11:46:16.252Z,3.13
2022-08-17T11:48:42.475Z,2.97
2022-08-17T11:51:08.693Z,3.60
2022-08-17T11:53:35.012Z,3.90
2022-08-17T11:56:01.320Z,3.05
2022-08-17T11:58:27.561Z,3.45
2022-08-17T12:00:53.784Z,2.80
2022-08-17T12:03:20.054Z,3.45
2022-08-17T12:05:46.449Z,2.78
2022-08-17T12:08:12.781Z,3.08
2022-08-17T12:10:38.990Z,3.83
2022-08-17T12:13:05.233Z,3.20
2022-08-17T12:15:31.453Z,4.05
2022-08-17T12:17:58.150Z,3.08
2022-08-17T12:20:24.537Z,4.20
2022-08-17T12:22:50.859Z,4.10
2022-08-17T12:25:17.255Z,3.67
2022-08-17T12:28:04.239Z,3.13
2022-08-17T12:30:29.751Z,2.60
2022-08-17T12:32:56.169Z,4.55
2022-08-17T12:35:22.513Z,3.47
2022-08-17T12:37:48.827Z,4.80
2022-08-17T12:40:15.147Z,2.78
2022-08-17T12:42:41.562Z,3.30
2022-08-17T12:45:07.812Z,3.70
2022-08-17T12:47:34.045Z,4.03
2022-08-17T12:50:03.186Z,3.30
2022-08-17T12:52:29.454Z,3.13
2022-08-17T12:54:55.710Z,3.92
2022-08-17T12:57:21.954Z,3.45
2022-08-17T12:59:48.199Z,3.50
2022-08-17T13:02:15.011Z,3.05
2022-08-17T13:04:41.254Z,4.13
2022-08-17T13:07:07.516Z,3.13
2022-08-17T13:09:40.472Z,3.75
2022-08-17T13:12:07.502Z,3.65
2022-08-17T13:14:34.238Z,3.45
2022-08-17T13:17:00.575Z,3.10
2022-08-17T13:19:39.829Z,3.90
2022-08-17T13:22:07.610Z,3.55
2022-08-17T13:24:38.282Z,3.80
2022-08-17T13:27:07.976Z,4.43
2022-08-17T13:29:34.724Z,3.63
2022-08-17T13:32:04.224Z,4.28
2022-08-17T13:34:31.334Z,3.58
2022-08-17T13:36:59.557Z,3.90
2022-08-17T13:39:26.137Z,4.72
2022-08-17T13:41:52.551Z,3.47
2022-08-17T13:44:18.780Z,4.80
2022-08-17T13:46:45.139Z,3.13
2022-08-17T13:49:18.642Z,3.60
2022-08-17T13:51:44.980Z,3.22
2022-08-17T13:54:11.323Z,3.47
2022-08-17T13:56:39.569Z,10.05
2022-08-17T13:59:06.056Z,4.95
2022-08-17T14:01:32.432Z,3.53
2022-08-17T14:03:58.751Z,4.32
2022-08-17T14:06:52.042Z,4.43
2022-08-17T14:09:11.281Z,4.65
2022-08-17T14:11:37.531Z,3.65
2022-08-17T14:14:03.800Z,3.30
2022-08-17T14:16:30.107Z,3.78
2022-08-17T14:18:57.486Z,3.75
2022-08-17T14:21:23.783Z,4.85
2022-08-17T14:23:54.381Z,6.80
2022-08-17T14:26:21.334Z,4.35
2022-08-17T14:28:49.457Z,4.38
2022-08-17T14:31:22.906Z,3.95
2022-08-17T14:33:49.178Z,3.70
2022-08-17T14:36:15.472Z,6.28
2022-08-17T14:38:41.724Z,6.57
2022-08-17T14:41:08.126Z,4.85
2022-08-17T14:43:34.403Z,6.00
2022-08-17T14:46:00.684Z,3.95
2022-08-17T14:48:26.956Z,4.97
2022-08-17T14:50:53.249Z,3.10
2022-08-17T14:53:19.619Z,3.97
2022-08-17T14:55:47.119Z,3.47
2022-08-17T14:58:14.943Z,3.38
2022-08-17T15:00:41.173Z,3.65
2022-08-17T15:03:07.411Z,5.60
2022-08-17T15:05:33.712Z,4.97
2022-08-17T15:08:00.285Z,3.30
2022-08-17T15:10:26.572Z,3.17
2022-08-17T15:12:52.841Z,4.22
2022-08-17T15:15:19.167Z,3.67
2022-08-17T15:17:46.128Z,3.75
2022-08-17T15:20:21.117Z,4.55
2022-08-17T15:22:47.372Z,3.88
2022-08-17T15:25:13.606Z,3.47
2022-08-17T15:27:39.871Z,3.92
2022-08-17T15:30:07.325Z,4.00
2022-08-17T15:32:33.780Z,4.47
2022-08-17T15:35:00.114Z,4.35
2022-08-17T15:37:26.384Z,4.35
2022-08-17T15:39:52.688Z,4.25
2022-08-17T15:42:18.960Z,3.88
2022-08-17T15:44:45.167Z,4.50
2022-08-17T15:47:11.417Z,4.30
2022-08-17T15:49:38.715Z,4.43
2022-08-17T15:52:04.942Z,3.25
2022-08-17T15:54:31.655Z,4.63
2022-08-17T15:57:01.019Z,3.50
2022-08-17T15:59:27.238Z,4.40
2022-08-17T16:03:15.105Z,4.10
2022-08-17T16:04:41.441Z,3.67
2022-08-17T16:07:10.478Z,4.68
2022-08-17T16:09:36.739Z,3.33
2022-08-17T16:12:02.993Z,4.38
2022-08-17T16:14:34.008Z,4.05
2022-08-17T16:17:01.450Z,3.75
2022-08-17T16:19:27.776Z,4.15
2022-08-17T16:21:54.023Z,5.13
2022-08-17T16:24:20.335Z,5.05
2022-08-17T16:26:46.625Z,4.32
2022-08-17T16:29:12.845Z,5.60
2022-08-17T16:31:39.171Z,3.85
2022-08-17T16:34:16.776Z,3.80
2022-08-17T16:36:54.658Z,4.53
2022-08-17T16:39:22.078Z,4.80
2022-08-17T16:41:48.645Z,4.70
2022-08-17T16:44:15.496Z,3.47
2022-08-17T16:46:45.983Z,3.55
2022-08-17T16:49:12.410Z,4.70
2022-08-17T16:51:55.866Z,12.70
2022-08-17T16:54:22.121Z,6.75
2022-08-17T16:56:48.363Z,7.25
2022-08-17T16:59:30.229Z,6.50
2022-08-17T17:01:58.040Z,7.78
2022-08-17T17:04:24.390Z,4.50
2022-08-17T17:06:50.758Z,4.28
2022-08-17T17:09:16.961Z,4.75
2022-08-17T17:11:43.230Z,4.18
2022-08-17T17:14:09.482Z,4.00
2022-08-17T17:16:35.840Z,3.35
2022-08-17T17:19:02.127Z,4.30
2022-08-17T17:21:28.561Z,3.97
2022-08-17T17:23:54.785Z,4.32
2022-08-17T17:26:21.076Z,4.68
2022-08-17T17:28:47.306Z,4.57
2022-08-17T17:31:13.549Z,3.42
2022-08-17T17:33:39.777Z,4.95
2022-08-17T17:36:06.079Z,4.55
2022-08-17T17:38:32.307Z,4.53
2022-08-17T17:41:02.496Z,4.95
2022-08-17T17:43:39.022Z,4.55
2022-08-17T17:46:28.693Z,5.47
2022-08-17T17:48:52.965Z,5.13
2022-08-17T17:52:05.285Z,4.55
2022-08-17T17:54:05.470Z,5.35
2022-08-17T17:56:44.157Z,4.30
2022-08-17T18:01:39.334Z,4.90
2022-08-17T18:04:17.017Z,5.15
2022-08-17T18:06:47.049Z,6.35
2022-08-17T18:09:15.477Z,6.13
2022-08-17T18:11:45.749Z,5.88
2022-08-17T18:14:17.565Z,4.70
2022-08-17T18:16:43.919Z,4.70
2022-08-17T18:19:11.497Z,8.48
2022-08-17T18:21:39.119Z,5.93
2022-08-17T18:24:06.578Z,5.93
2022-08-17T18:26:34.443Z,5.68
2022-08-17T18:29:00.980Z,5.13
2022-08-17T18:31:27.377Z,4.68
2022-08-17T18:33:53.607Z,6.07
2022-08-17T18:36:19.881Z,5.93
2022-08-17T18:38:46.595Z,5.82
2022-08-17T18:41:13.028Z,5.05
2022-08-17T18:43:52.770Z,6.13
2022-08-17T18:46:28.298Z,5.32
2022-08-17T18:48:55.972Z,5.18
2022-08-17T18:51:39.701Z,5.72
2022-08-17T18:54:08.044Z,4.50
2022-08-17T18:56:34.539Z,6.15
2022-08-17T18:59:00.811Z,5.72
2022-08-17T19:01:41.941Z,7.85
2022-08-17T19:04:13.600Z,9.77
2022-08-17T19:06:39.920Z,6.70
2022-08-17T19:09:06.356Z,5.60
2022-08-17T19:11:32.611Z,6.40
2022-08-17T19:13:58.918Z,8.70
2022-08-17T19:16:25.162Z,7.53
2022-08-17T19:18:51.435Z,7.43
2022-08-17T19:21:18.067Z,6.25
2022-08-17T19:23:53.706Z,10.10
2022-08-17T19:26:55.381Z,6.47
2022-08-17T19:29:06.872Z,6.78
2022-08-17T19:31:33.151Z,6.35
2022-08-17T19:33:59.484Z,5.53
2022-08-17T19:36:25.848Z,6.65
2022-08-17T19:38:52.101Z,6.28
2022-08-17T19:41:18.374Z,7.07
2022-08-17T19:43:44.863Z,6.65
2022-08-17T19:46:11.173Z,6.70
2022-08-17T19:48:37.403Z,6.20
2022-08-17T19:51:03.658Z,6.20
2022-08-17T19:53:42.000Z,6.35
2022-08-17T19:56:16.189Z,6.18
2022-08-17T19:58:42.424Z,6.57
2022-08-17T20:01:11.074Z,6.00
2022-08-17T20:03:37.385Z,6.63
2022-08-17T20:06:18.832Z,5.88
2022-08-17T20:08:45.153Z,5.93
2022-08-17T20:11:11.410Z,5.78
2022-08-17T20:13:37.762Z,7.03
2022-08-17T20:16:04.018Z,7.13
2022-08-17T20:18:30.259Z,7.97
2022-08-17T20:20:56.586Z,6.32
2022-08-17T20:23:22.815Z,7.05
2022-08-17T20:25:49.088Z,6.90
2022-08-17T20:28:15.300Z,7.07
2022-08-17T20:30:42.315Z,6.13
2022-08-17T20:33:08.525Z,7.53
2022-08-17T20:35:39.435Z,6.72
2022-08-17T20:38:05.631Z,9.10
2022-08-17T20:40:31.887Z,7.85
2022-08-17T20:42:58.107Z,6.00
2022-08-17T20:45:24.449Z,7.47
2022-08-17T20:48:15.994Z,7.43
2022-08-17T20:50:36.967Z,7.03
2022-08-17T20:53:03.213Z,6.15
2022-08-17T20:55:29.457Z,6.90
2022-08-17T20:57:55.683Z,6.28
2022-08-17T21:00:21.911Z,6.35
2022-08-17T21:02:48.140Z,6.35
2022-08-17T21:05:14.397Z,6.18
2022-08-17T21:07:42.710Z,7.10
2022-08-17T21:10:09.998Z,6.38
2022-08-17T21:12:36.392Z,6.60
2022-08-17T21:15:02.657Z,6.25
2022-08-17T21:17:28.957Z,7.03
2022-08-17T21:20:10.447Z,6.82
2022-08-17T21:22:37.507Z,7.57
2022-08-17T21:25:03.777Z,8.05
2022-08-17T21:27:30.067Z,6.40
2022-08-17T21:29:56.516Z,6.38
2022-08-17T21:32:24.423Z,6.55
2022-08-17T21:34:51.604Z,6.40
2022-08-17T21:37:17.871Z,7.10
2022-08-17T21:39:44.137Z,7.30
2022-08-17T21:42:10.411Z,5.85
2022-08-17T21:44:36.713Z,6.53
2022-08-17T21:47:02.979Z,6.63
2022-08-17T21:49:29.221Z,6.78
2022-08-17T21:52:04.004Z,7.13
2022-08-17T21:54:30.263Z,7.53
2022-08-17T21:56:56.554Z,7.07
2022-08-17T21:59:22.920Z,7.47
2022-08-17T22:01:50.707Z,7.60
2022-08-17T22:04:17.017Z,7.55
2022-08-17T22:06:43.305Z,7.57
2022-08-17T22:09:23.726Z,7.00
2022-08-17T22:11:49.979Z,8.18
2022-08-17T22:14:16.239Z,7.22
2022-08-17T22:16:43.748Z,7.00
2022-08-17T22:19:10.020Z,6.72
2022-08-17T22:21:36.255Z,6.65
2022-08-17T22:24:02.499Z,7.38
2022-08-17T22:26:28.724Z,6.55
2022-08-17T22:28:54.960Z,8.18
2022-08-17T22:31:21.215Z,7.50
2022-08-17T22:33:47.579Z,7.13
2022-08-17T22:36:13.808Z,7.03
2022-08-17T22:38:40.587Z,7.88
2022-08-17T22:41:06.925Z,46.30
2022-08-17T22:43:34.976Z,14.52
2022-08-17T22:46:01.306Z,8.77
2022-08-17T22:48:27.708Z,7.85
2022-08-17T22:50:54.071Z,6.85
2022-08-17T22:53:20.319Z,7.35
2022-08-17T22:55:46.602Z,7.18
2022-08-17T22:58:12.854Z,7.05
2022-08-17T23:00:39.121Z,6.43
2022-08-17T23:03:05.413Z,8.82
2022-08-17T23:05:31.717Z,13.63
2022-08-17T23:07:57.957Z,9.02
2022-08-17T23:10:24.209Z,7.07
2022-08-17T23:12:50.447Z,8.27
2022-08-17T23:15:16.670Z,8.23
2022-08-17T23:17:42.890Z,7.55
2022-08-17T23:20:11.575Z,7.75
2022-08-17T23:22:37.781Z,7.15
2022-08-17T23:25:18.891Z,8.30
2022-08-17T23:27:46.854Z,7.25
2022-08-17T23:30:13.158Z,8.88
2022-08-17T23:32:39.396Z,7.95
2022-08-17T23:35:19.735Z,7.70
2022-08-17T23:38:05.634Z,6.47
2022-08-17T23:40:31.918Z,6.30
2022-08-17T23:42:58.220Z,7.28
2022-08-17T23:45:24.882Z,8.75
2022-08-17T23:47:51.423Z,7.90
2022-08-17T23:50:17.879Z,8.30
2022-08-17T23:52:44.821Z,7.05
2022-08-17T23:55:11.082Z,8.45
2022-08-17T23:57:37.309Z,7.97
